createdAt,value
2023-01-08T00:02:04.169Z,13.21
2023-01-08T00:04:30.724Z,13.08
2023-01-08T00:06:57.328Z,13.23
2023-01-08T00:09:23.954Z,12.96
2023-01-08T00:11:50.507Z,13.14
2023-01-08T00:14:17.054Z,13.14
2023-01-08T00:16:43.675Z,13.25
2023-01-08T00:19:12.423Z,13.05
2023-01-08T00:21:39.603Z,13.08
2023-01-08T00:24:06.531Z,13.12
2023-01-08T00:26:33.099Z,13.16
2023-01-08T00:28:59.606Z,13.08
2023-01-08T00:31:26.278Z,13.05
2023-01-08T00:33:52.883Z,12.99
2023-01-08T00:36:20.012Z,13.28
2023-01-08T00:38:47.357Z,13.15
2023-01-08T00:41:15.729Z,13.22
2023-01-08T00:43:42.409Z,13.28
2023-01-08T00:46:09.130Z,12.95
2023-01-08T00:48:38.529Z,13.15
2023-01-08T00:51:07.403Z,13.15
2023-01-08T00:53:34.081Z,13.01
2023-01-08T00:56:07.172Z,12.93
2023-01-08T00:58:34.185Z,13.17
2023-01-08T01:01:01.152Z,13.08
2023-01-08T01:03:28.059Z,13.21
2023-01-08T01:06:04.731Z,12.93
2023-01-08T01:08:31.633Z,12.94
2023-01-08T01:10:58.194Z,12.91
2023-01-08T01:13:25.137Z,13.07
2023-01-08T01:15:59.081Z,13.17
2023-01-08T01:18:25.946Z,13.26
2023-01-08T01:20:52.497Z,13.27
2023-01-08T01:23:19.159Z,13.48
2023-01-08T01:25:45.971Z,13.53
2023-01-08T01:28:12.757Z,13.64
2023-01-08T01:30:39.331Z,13.75
2023-01-08T01:33:05.976Z,13.81
2023-01-08T01:35:32.484Z,13.64
2023-01-08T01:37:59.095Z,13.52
2023-01-08T01:40:25.669Z,13.50
2023-01-08T01:42:52.256Z,13.22
2023-01-08T01:45:27.680Z,13.44
2023-01-08T01:48:02.154Z,13.59
2023-01-08T01:50:40.154Z,13.36
2023-01-08T01:53:17.296Z,13.81
2023-01-08T01:55:45.678Z,13.33
2023-01-08T01:58:24.590Z,13.25
2023-01-08T02:00:53.428Z,13.22
2023-01-08T02:03:23.394Z,12.97
2023-01-08T02:06:00.137Z,12.83
2023-01-08T02:08:45.609Z,12.74
2023-01-08T02:12:17.203Z,12.49
2023-01-08T02:14:54.868Z,12.91
2023-01-08T02:17:39.444Z,13.20
2023-01-08T02:20:14.284Z,12.98
2023-01-08T02:23:08.685Z,12.71
2023-01-08T02:25:40.878Z,12.93
2023-01-08T02:28:11.888Z,12.91
2023-01-08T02:30:38.695Z,12.96
2023-01-08T02:33:05.280Z,12.93
2023-01-08T02:35:44.225Z,13.11
2023-01-08T02:38:14.345Z,12.98
2023-01-08T02:40:56.736Z,12.92
2023-01-08T02:43:35.340Z,13.06
2023-01-08T02:46:03.135Z,12.80
2023-01-08T02:48:46.025Z,12.80
2023-01-08T02:51:22.057Z,12.80
2023-01-08T02:53:54.115Z,12.97
2023-01-08T02:56:28.615Z,13.03
2023-01-08T02:58:57.623Z,13.24
2023-01-08T03:01:25.956Z,12.92
2023-01-08T03:03:56.987Z,12.89
2023-01-08T03:06:25.834Z,12.90
2023-01-08T03:08:53.847Z,13.07
2023-01-08T03:11:23.039Z,12.99
2023-01-08T03:14:14.437Z,13.14
2023-01-08T03:17:26.166Z,13.24
2023-01-08T03:20:00.584Z,12.81
2023-01-08T03:22:28.331Z,12.91
2023-01-08T03:24:58.817Z,12.94
2023-01-08T03:27:29.455Z,12.75
2023-01-08T03:29:59.185Z,13.08
2023-01-08T03:32:28.621Z,12.38
2023-01-08T03:34:57.626Z,12.65
2023-01-08T03:37:29.357Z,12.41
2023-01-08T03:40:04.761Z,12.59
2023-01-08T03:42:32.531Z,12.81
2023-01-08T03:45:00.403Z,12.65
2023-01-08T03:47:30.555Z,12.80
2023-01-08T03:50:01.685Z,12.54
2023-01-08T03:52:30.789Z,12.78
2023-01-08T03:54:57.441Z,12.77
2023-01-08T03:57:24.235Z,12.76
2023-01-08T03:59:50.848Z,13.09
2023-01-08T04:02:17.726Z,12.78
2023-01-08T04:04:44.623Z,12.45
2023-01-08T04:07:12.433Z,12.70
2023-01-08T04:09:39.109Z,12.77
2023-01-08T04:12:05.942Z,12.58
2023-01-08T04:14:32.537Z,12.55
2023-01-08T04:16:59.175Z,12.49
2023-01-08T04:19:25.678Z,12.92
2023-01-08T04:21:52.748Z,12.84
2023-01-08T04:24:19.585Z,12.74
2023-01-08T04:26:46.368Z,12.90
2023-01-08T04:29:14.200Z,12.61
2023-01-08T04:31:41.343Z,12.74
2023-01-08T04:34:07.953Z,12.78
2023-01-08T04:36:34.577Z,12.86
2023-01-08T04:39:01.296Z,12.57
2023-01-08T04:41:27.901Z,12.48
2023-01-08T04:43:54.413Z,12.49
2023-01-08T04:46:21.172Z,12.56
2023-01-08T04:48:47.723Z,12.58
2023-01-08T04:51:14.296Z,12.57
2023-01-08T04:53:41.370Z,12.65
2023-01-08T04:56:10.185Z,12.81
2023-01-08T04:58:37.785Z,12.64
2023-01-08T05:01:16.783Z,12.51
2023-01-08T05:03:43.381Z,12.40
2023-01-08T05:06:10.026Z,12.51
2023-01-08T05:08:36.689Z,12.46
2023-01-08T05:11:03.273Z,12.40
2023-01-08T05:13:30.277Z,12.28
2023-01-08T05:16:00.461Z,12.52
2023-01-08T05:18:28.251Z,12.52
2023-01-08T05:20:55.177Z,12.41
2023-01-08T05:23:21.880Z,12.37
2023-01-08T05:25:48.447Z,12.22
2023-01-08T05:28:15.046Z,12.21
2023-01-08T05:30:41.677Z,12.47
2023-01-08T05:33:08.310Z,12.41
2023-01-08T05:35:34.820Z,12.23
2023-01-08T05:38:01.464Z,12.40
2023-01-08T05:40:27.993Z,12.34
2023-01-08T05:42:54.634Z,12.24
2023-01-08T05:45:21.233Z,12.41
2023-01-08T05:47:47.890Z,12.42
2023-01-08T05:50:14.573Z,12.16
2023-01-08T05:52:41.282Z,12.25
2023-01-08T05:55:08.160Z,12.33
2023-01-08T05:57:34.783Z,12.39
2023-01-08T06:00:01.424Z,12.50
2023-01-08T06:02:38.191Z,12.40
2023-01-08T06:05:05.297Z,12.37
2023-01-08T06:07:31.940Z,12.47
2023-01-08T06:09:58.570Z,12.47
2023-01-08T06:12:25.184Z,12.46
2023-01-08T06:14:51.683Z,12.34
2023-01-08T06:17:18.260Z,12.47
2023-01-08T06:19:46.482Z,12.55
2023-01-08T06:22:13.126Z,12.52
2023-01-08T06:24:39.612Z,12.71
2023-01-08T06:27:06.178Z,12.99
2023-01-08T06:29:32.664Z,13.08
2023-01-08T06:31:59.205Z,12.85
2023-01-08T06:34:25.763Z,12.86
2023-01-08T06:36:52.297Z,12.76
2023-01-08T06:39:18.874Z,12.66
2023-01-08T06:41:45.556Z,12.53
2023-01-08T06:44:12.578Z,12.66
2023-01-08T06:46:40.408Z,12.57
2023-01-08T06:49:07.443Z,12.57
2023-01-08T06:51:34.095Z,12.51
2023-01-08T06:54:00.603Z,12.34
2023-01-08T06:56:27.288Z,12.63
2023-01-08T06:58:54.015Z,12.27
2023-01-08T07:01:22.770Z,12.16
2023-01-08T07:03:49.375Z,11.99
2023-01-08T07:06:18.803Z,11.71
2023-01-08T07:08:46.330Z,11.69
2023-01-08T07:11:13.769Z,11.51
2023-01-08T07:13:40.323Z,11.41
2023-01-08T07:16:13.261Z,11.35
2023-01-08T07:18:40.247Z,11.50
2023-01-08T07:21:08.435Z,11.45
2023-01-08T07:23:36.357Z,11.51
2023-01-08T07:26:04.837Z,11.86
2023-01-08T07:28:31.436Z,11.93
2023-01-08T07:30:58.077Z,11.03
2023-01-08T07:33:24.701Z,11.24
2023-01-08T07:35:55.767Z,11.63
2023-01-08T07:38:23.111Z,11.81
2023-01-08T07:40:49.698Z,11.85
2023-01-08T07:43:16.362Z,11.61
2023-01-08T07:45:43.152Z,11.80
2023-01-08T07:48:19.156Z,11.97
2023-01-08T07:50:45.846Z,11.93
2023-01-08T07:53:13.879Z,11.98
2023-01-08T07:55:40.446Z,11.84
2023-01-08T07:58:14.414Z,12.17
2023-01-08T08:00:41.871Z,12.19
2023-01-08T08:03:11.538Z,12.31
2023-01-08T08:05:38.651Z,12.90
2023-01-08T08:08:09.815Z,12.31
2023-01-08T08:10:36.794Z,12.07
2023-01-08T08:13:03.562Z,11.29
2023-01-08T08:15:30.356Z,11.29
2023-01-08T08:17:56.908Z,11.89
2023-01-08T08:20:23.525Z,12.15
2023-01-08T08:22:50.172Z,12.06
2023-01-08T08:25:16.955Z,12.10
2023-01-08T08:27:44.182Z,12.31
2023-01-08T08:30:12.138Z,12.82
2023-01-08T08:32:38.738Z,12.00
2023-01-08T08:35:05.920Z,12.04
2023-01-08T08:37:32.682Z,12.02
2023-01-08T08:39:59.399Z,11.90
2023-01-08T08:42:26.054Z,11.55
2023-01-08T08:44:52.703Z,11.79
2023-01-08T08:47:19.389Z,11.50
2023-01-08T08:49:45.959Z,11.34
2023-01-08T08:52:12.513Z,11.41
2023-01-08T08:54:41.416Z,11.55
2023-01-08T08:57:11.390Z,11.07
2023-01-08T08:59:38.134Z,11.15
2023-01-08T09:02:05.371Z,11.32
2023-01-08T09:04:34.069Z,11.17
2023-01-08T09:07:01.175Z,11.25
2023-01-08T09:09:28.407Z,11.40
2023-01-08T09:11:56.117Z,11.59
2023-01-08T09:14:22.860Z,11.73
2023-01-08T09:16:49.581Z,11.80
2023-01-08T09:19:16.246Z,11.76
2023-01-08T09:21:42.882Z,11.95
2023-01-08T09:24:09.773Z,12.26
2023-01-08T09:26:36.369Z,12.05
2023-01-08T09:29:03.692Z,11.94
2023-01-08T09:31:30.194Z,11.92
2023-01-08T09:33:56.774Z,11.95
2023-01-08T09:36:23.218Z,12.01
2023-01-08T09:38:49.968Z,11.79
2023-01-08T09:41:27.147Z,11.91
2023-01-08T09:43:56.259Z,11.94
2023-01-08T09:46:27.272Z,11.99
2023-01-08T09:48:59.131Z,11.86
2023-01-08T09:51:38.463Z,12.24
2023-01-08T09:54:07.476Z,12.28
2023-01-08T09:56:35.538Z,12.28
2023-01-08T09:59:04.421Z,12.16
2023-01-08T10:01:38.887Z,11.98
2023-01-08T10:04:17.897Z,12.32
2023-01-08T10:07:21.801Z,12.20
2023-01-08T10:09:50.121Z,12.38
2023-01-08T10:12:30.808Z,12.26
2023-01-08T10:15:01.977Z,12.22
2023-01-08T10:17:34.441Z,12.44
2023-01-08T10:20:01.271Z,12.69
2023-01-08T10:22:32.394Z,12.87
2023-01-08T10:25:08.871Z,12.59
2023-01-08T10:28:05.124Z,12.85
2023-01-08T10:30:35.845Z,12.75
2023-01-08T10:33:06.088Z,13.19
2023-01-08T10:35:39.432Z,13.30
2023-01-08T10:38:06.713Z,13.38
2023-01-08T10:40:49.447Z,13.28
2023-01-08T10:43:24.022Z,13.35
2023-01-08T10:45:56.407Z,13.52
2023-01-08T10:48:29.181Z,13.57
2023-01-08T10:51:14.096Z,13.77
2023-01-08T10:53:41.466Z,13.83
2023-01-08T10:56:22.697Z,13.49
2023-01-08T10:58:50.364Z,13.27
2023-01-08T11:01:22.949Z,13.29
2023-01-08T11:04:06.787Z,13.55
2023-01-08T11:06:37.750Z,13.80
2023-01-08T11:09:19.237Z,13.92
2023-01-08T11:11:45.821Z,14.17
2023-01-08T11:14:22.620Z,14.28
2023-01-08T11:16:50.272Z,14.12
2023-01-08T11:19:29.577Z,14.08
2023-01-08T11:22:05.381Z,14.36
2023-01-08T11:24:35.069Z,14.15
2023-01-08T11:27:22.297Z,14.07
2023-01-08T11:30:12.933Z,13.98
2023-01-08T11:32:51.502Z,13.81
2023-01-08T11:35:31.986Z,13.93
2023-01-08T11:38:01.741Z,14.10
2023-01-08T11:40:31.522Z,14.18
2023-01-08T11:43:11.204Z,14.06
2023-01-08T11:45:53.644Z,14.39
2023-01-08T11:48:48.325Z,14.32
2023-01-08T11:51:33.730Z,14.29
2023-01-08T11:54:07.255Z,14.44
2023-01-08T11:57:08.568Z,14.27
2023-01-08T12:00:09.027Z,14.55
2023-01-08T12:02:54.586Z,14.31
2023-01-08T12:05:46.489Z,14.17
2023-01-08T12:08:45.575Z,14.75
2023-01-08T12:11:24.303Z,14.34
2023-01-08T12:14:07.831Z,14.19
2023-01-08T12:16:58.473Z,14.91
2023-01-08T12:19:40.235Z,14.37
2023-01-08T12:22:30.149Z,14.21
2023-01-08T12:25:12.060Z,13.62
2023-01-08T12:27:58.242Z,13.50
2023-01-08T12:30:40.241Z,13.49
2023-01-08T12:33:29.637Z,13.69
2023-01-08T12:36:00.026Z,14.01
2023-01-08T12:38:52.810Z,13.99
2023-01-08T12:41:19.488Z,13.87
2023-01-08T12:43:59.059Z,13.02
2023-01-08T12:46:30.352Z,11.20
2023-01-08T12:48:57.772Z,10.75
2023-01-08T12:52:11.751Z,10.31
2023-01-08T12:54:55.381Z,10.19
2023-01-08T12:57:32.883Z,10.50
2023-01-08T13:00:07.553Z,10.37
2023-01-08T13:03:03.788Z,10.80
2023-01-08T13:05:37.188Z,11.14
2023-01-08T13:08:21.998Z,11.75
2023-01-08T13:10:55.274Z,10.59
2023-01-08T13:13:32.371Z,10.84
2023-01-08T13:16:18.734Z,10.77
2023-01-08T13:18:59.527Z,10.86
2023-01-08T13:21:34.237Z,11.02
2023-01-08T13:24:03.944Z,10.60
2023-01-08T13:26:33.580Z,10.52
2023-01-08T13:29:22.065Z,10.40
2023-01-08T13:31:48.760Z,10.68
2023-01-08T13:34:21.955Z,10.48
2023-01-08T13:36:57.643Z,10.63
2023-01-08T13:39:31.546Z,10.95
2023-01-08T13:42:22.146Z,10.57
2023-01-08T13:44:51.739Z,11.03
2023-01-08T13:47:33.507Z,11.03
2023-01-08T13:50:04.422Z,10.68
2023-01-08T13:52:48.957Z,10.71
2023-01-08T13:55:35.349Z,10.99
2023-01-08T13:58:16.542Z,11.36
2023-01-08T14:00:43.191Z,11.34
2023-01-08T14:03:26.296Z,11.27
2023-01-08T14:06:05.233Z,11.46
2023-01-08T14:08:31.799Z,11.53
2023-01-08T14:10:58.604Z,11.69
2023-01-08T14:13:31.078Z,11.86
2023-01-08T14:16:03.613Z,12.06
2023-01-08T14:18:30.442Z,11.83
2023-01-08T14:20:57.657Z,11.88
2023-01-08T14:23:28.679Z,11.81
2023-01-08T14:25:56.180Z,11.69
2023-01-08T14:28:23.501Z,11.54
2023-01-08T14:30:56.778Z,11.68
2023-01-08T14:33:35.695Z,11.45
2023-01-08T14:36:06.103Z,11.41
2023-01-08T14:38:32.938Z,11.38
2023-01-08T14:41:09.412Z,11.75
2023-01-08T14:43:41.870Z,11.69
2023-01-08T14:46:29.064Z,11.67
2023-01-08T14:48:57.038Z,11.69
2023-01-08T14:51:27.039Z,11.36
2023-01-08T14:54:01.915Z,11.42
2023-01-08T14:56:36.065Z,11.54
2023-01-08T14:59:12.269Z,12.01
2023-01-08T15:01:39.223Z,11.86
2023-01-08T15:04:17.182Z,11.49
2023-01-08T15:06:43.825Z,11.85
2023-01-08T15:09:26.536Z,12.04
2023-01-08T15:11:59.098Z,12.18
2023-01-08T15:14:28.750Z,11.91
2023-01-08T15:16:58.069Z,12.05
2023-01-08T15:19:27.752Z,11.98
2023-01-08T15:22:01.752Z,12.35
2023-01-08T15:24:34.382Z,12.35
2023-01-08T15:27:09.834Z,11.79
2023-01-08T15:30:00.071Z,11.87
2023-01-08T15:32:37.034Z,11.61
2023-01-08T15:35:18.628Z,11.98
2023-01-08T15:37:45.630Z,11.85
2023-01-08T15:40:12.633Z,12.05
2023-01-08T15:42:57.915Z,12.31
2023-01-08T15:45:29.797Z,12.15
2023-01-08T15:47:56.409Z,12.05
2023-01-08T15:50:25.112Z,11.92
2023-01-08T15:52:52.073Z,11.98
2023-01-08T15:55:24.031Z,11.76
2023-01-08T15:57:50.906Z,11.68
2023-01-08T16:00:19.989Z,11.50
2023-01-08T16:02:49.048Z,11.61
2023-01-08T16:05:20.247Z,11.54
2023-01-08T16:07:47.239Z,11.79
2023-01-08T16:10:17.519Z,11.99
2023-01-08T16:12:44.853Z,12.04
2023-01-08T16:15:12.754Z,12.03
2023-01-08T16:17:39.747Z,12.16
2023-01-08T16:20:07.892Z,12.32
2023-01-08T16:22:34.826Z,12.11
2023-01-08T16:25:01.636Z,12.14
2023-01-08T16:27:30.629Z,11.95
2023-01-08T16:29:57.430Z,12.24
2023-01-08T16:32:24.097Z,12.25
2023-01-08T16:34:50.581Z,11.94
2023-01-08T16:37:17.281Z,12.14
2023-01-08T16:39:43.856Z,12.70
2023-01-08T16:42:11.851Z,12.46
2023-01-08T16:44:38.683Z,12.58
2023-01-08T16:47:05.441Z,12.85
2023-01-08T16:49:33.481Z,12.52
2023-01-08T16:52:00.292Z,12.88
2023-01-08T16:54:27.365Z,12.49
2023-01-08T16:56:54.350Z,12.56
2023-01-08T16:59:23.575Z,12.71
2023-01-08T17:01:51.980Z,12.68
2023-01-08T17:04:18.724Z,12.69
2023-01-08T17:06:46.656Z,12.75
2023-01-08T17:09:13.398Z,12.82
2023-01-08T17:11:40.140Z,12.74
2023-01-08T17:14:06.864Z,12.66
2023-01-08T17:16:33.521Z,12.62
2023-01-08T17:19:00.178Z,12.91
2023-01-08T17:21:26.835Z,12.69
2023-01-08T17:23:53.410Z,12.67
2023-01-08T17:26:19.988Z,12.74
2023-01-08T17:28:47.280Z,13.47
2023-01-08T17:31:18.981Z,13.14
2023-01-08T17:33:50.161Z,12.98
2023-01-08T17:36:19.320Z,13.14
2023-01-08T17:38:50.525Z,13.14
2023-01-08T17:41:36.631Z,13.48
2023-01-08T17:44:06.650Z,13.63
2023-01-08T17:46:38.031Z,12.89
2023-01-08T17:49:04.571Z,12.78
2023-01-08T17:51:32.434Z,12.54
2023-01-08T17:53:59.731Z,12.53
2023-01-08T17:56:26.836Z,12.58
2023-01-08T17:58:53.503Z,12.71
2023-01-08T18:01:20.306Z,12.84
2023-01-08T18:03:47.408Z,12.82
2023-01-08T18:06:14.192Z,13.02
2023-01-08T18:08:41.259Z,13.14
2023-01-08T18:11:09.559Z,13.47
2023-01-08T18:13:37.613Z,14.14
2023-01-08T18:16:07.161Z,14.41
2023-01-08T18:18:34.868Z,14.07
2023-01-08T18:21:01.557Z,13.68
2023-01-08T18:23:28.993Z,13.55
2023-01-08T18:25:55.541Z,12.66
2023-01-08T18:28:22.239Z,12.59
2023-01-08T18:30:48.840Z,12.37
2023-01-08T18:33:16.015Z,12.27
2023-01-08T18:35:42.633Z,11.88
2023-01-08T18:38:18.378Z,12.03
2023-01-08T18:40:45.931Z,11.75
2023-01-08T18:43:12.967Z,11.51
2023-01-08T18:45:39.633Z,11.16
2023-01-08T18:48:07.742Z,11.99
2023-01-08T18:50:34.758Z,12.17
2023-01-08T18:53:03.768Z,12.04
2023-01-08T18:55:30.817Z,12.05
2023-01-08T18:57:57.895Z,12.26
2023-01-08T19:00:26.172Z,12.67
2023-01-08T19:02:53.524Z,12.43
2023-01-08T19:05:20.256Z,12.54
2023-01-08T19:07:46.801Z,12.42
2023-01-08T19:10:14.299Z,12.42
2023-01-08T19:12:40.982Z,12.64
2023-01-08T19:15:07.990Z,12.54
2023-01-08T19:17:34.639Z,12.55
2023-01-08T19:20:01.349Z,12.46
2023-01-08T19:22:29.469Z,12.38
2023-01-08T19:24:56.641Z,11.59
2023-01-08T19:27:23.966Z,11.34
2023-01-08T19:29:51.237Z,11.30
2023-01-08T19:32:17.960Z,11.03
2023-01-08T19:34:44.603Z,11.14
2023-01-08T19:37:11.936Z,11.19
2023-01-08T19:39:38.583Z,11.23
2023-01-08T19:42:23.629Z,11.10
2023-01-08T19:44:50.276Z,11.42
2023-01-08T19:47:16.913Z,11.54
2023-01-08T19:49:47.504Z,11.55
2023-01-08T19:52:15.183Z,11.56
2023-01-08T19:54:42.315Z,11.64
2023-01-08T19:57:08.944Z,11.13
2023-01-08T19:59:35.574Z,11.25
2023-01-08T20:02:02.495Z,11.25
2023-01-08T20:04:30.911Z,11.22
2023-01-08T20:06:58.161Z,11.21
2023-01-08T20:09:24.781Z,11.34
2023-01-08T20:11:51.438Z,11.66
2023-01-08T20:14:20.644Z,11.26
2023-01-08T20:16:47.628Z,11.37
2023-01-08T20:19:14.198Z,11.19
2023-01-08T20:21:40.917Z,10.96
2023-01-08T20:24:10.988Z,10.97
2023-01-08T20:26:38.301Z,11.06
2023-01-08T20:29:05.717Z,11.06
2023-01-08T20:31:34.175Z,10.89
2023-01-08T20:34:04.547Z,10.93
2023-01-08T20:36:33.649Z,10.90
2023-01-08T20:39:06.936Z,10.96
2023-01-08T20:41:33.513Z,11.05
2023-01-08T20:44:03.541Z,10.97
2023-01-08T20:46:30.185Z,10.97
2023-01-08T20:49:04.441Z,11.18
2023-01-08T20:51:33.140Z,11.09
2023-01-08T20:54:00.832Z,11.10
2023-01-08T20:56:27.728Z,11.04
2023-01-08T20:58:54.361Z,11.28
2023-01-08T21:01:23.083Z,11.25
2023-01-08T21:03:53.489Z,11.39
2023-01-08T21:06:22.651Z,11.12
2023-01-08T21:08:51.148Z,11.27
2023-01-08T21:11:19.319Z,11.37
2023-01-08T21:13:46.190Z,11.46
2023-01-08T21:16:16.226Z,11.45
2023-01-08T21:18:49.074Z,11.39
2023-01-08T21:21:21.411Z,11.45
2023-01-08T21:23:48.758Z,11.54
2023-01-08T21:26:17.257Z,11.48
2023-01-08T21:28:44.908Z,11.53
2023-01-08T21:31:28.385Z,11.44
2023-01-08T21:33:57.497Z,11.54
2023-01-08T21:36:26.480Z,11.55
2023-01-08T21:38:53.309Z,11.65
2023-01-08T21:41:40.441Z,11.63
2023-01-08T21:44:32.054Z,11.61
2023-01-08T21:47:00.052Z,11.78
2023-01-08T21:49:27.645Z,11.93
2023-01-08T21:52:13.477Z,11.82
2023-01-08T21:54:40.080Z,11.91
2023-01-08T21:57:07.311Z,11.90
2023-01-08T21:59:34.412Z,11.97
2023-01-08T22:02:01.604Z,11.95
2023-01-08T22:04:28.302Z,11.89
2023-01-08T22:06:54.993Z,11.66
2023-01-08T22:09:21.650Z,11.76
2023-01-08T22:11:48.221Z,11.67
2023-01-08T22:14:15.851Z,11.43
2023-01-08T22:16:42.413Z,11.51
2023-01-08T22:19:10.312Z,11.41
2023-01-08T22:21:36.978Z,11.07
2023-01-08T22:24:03.734Z,11.34
2023-01-08T22:26:30.389Z,10.90
2023-01-08T22:28:57.026Z,11.19
2023-01-08T22:31:23.650Z,11.42
2023-01-08T22:33:54.192Z,11.48
2023-01-08T22:36:21.241Z,11.14
2023-01-08T22:38:47.866Z,11.30
2023-01-08T22:41:17.760Z,11.30
2023-01-08T22:43:44.391Z,11.10
2023-01-08T22:46:13.313Z,11.04
2023-01-08T22:48:39.871Z,10.72
2023-01-08T22:51:06.799Z,10.52
2023-01-08T22:53:33.654Z,10.08
2023-01-08T22:56:00.306Z,10.13
2023-01-08T22:58:27.873Z,10.14
2023-01-08T23:00:54.830Z,10.22
2023-01-08T23:03:21.391Z,10.09
2023-01-08T23:05:47.980Z,9.87
2023-01-08T23:08:14.464Z,9.89
2023-01-08T23:10:41.149Z,9.82
2023-01-08T23:13:07.720Z,9.91
2023-01-08T23:15:34.396Z,9.82
2023-01-08T23:18:01.013Z,9.79
2023-01-08T23:20:27.590Z,9.57
2023-01-08T23:22:54.145Z,9.69
2023-01-08T23:25:20.876Z,9.76
2023-01-08T23:27:47.532Z,9.74
2023-01-08T23:30:14.172Z,9.91
2023-01-08T23:32:40.804Z,9.72
2023-01-08T23:35:07.696Z,9.97
2023-01-08T23:37:34.447Z,9.93
2023-01-08T23:40:01.113Z,10.11
2023-01-08T23:42:29.466Z,9.85
2023-01-08T23:44:56.162Z,9.70
2023-01-08T23:47:22.728Z,9.77
2023-01-08T23:49:49.337Z,9.74
2023-01-08T23:52:15.874Z,9.78
2023-01-08T23:54:42.492Z,9.89
2023-01-08T23:57:09.067Z,9.84
2023-01-08T23:59:35.705Z,9.74
